Terminal Aerodrome Forecast
Issued by NWS

Home | Current Version | Previous Version | Text Only | Print | Product List | Glossary On
Versions: 1 2 3 4 5 6 7 8 9 10 11 12 13 14 15 16 17 18 19 20 21 22 23 24
294
FTUS43 KMQT 280534
TAFIWD
TAF
KIWD 280534Z 2806/2906 12003KT P6SM OVC015
     FM281000 16003KT 3SM BR OVC008
     FM281700 06003KT P6SM -SHRA OVC015
     FM282100 08003KT 5SM -SHRA OVC015
     FM290300 00000KT 3SM BR OVC010=

USA.gov is the U.S. government's official web portal to all federal, state and local government web resources and services.